Time;durP1;ratioP1;P1;durP2;ratioP2;P2;SDS_P1;SDS_P2;PMS_P1;PMS_P2;Temp;Humidity;BMP_temperature;BMP_pressure;BME280_temperature;BME280_humidity;BME280_pressure;Samples;Min_cycle;Max_cycle;Signal;HPM_P1;HPM_P2
2023/02/09 00:00:09;;;;;;;25.88;15.75;;;6.20;99.90;;;6.34;47.09;102989.22;5093218;28;20122;-66
2023/02/09 00:02:42;;;;;;;30.80;15.57;;;6.10;99.90;;;6.23;46.78;102981.66;5093474;28;20139;-66
2023/02/09 00:05:12;;;;;;;22.25;16.05;;;6.00;99.90;;;6.14;46.81;102986.44;5093161;28;20040;-67
2023/02/09 00:07:41;;;;;;;23.90;16.23;;;5.90;99.90;;;6.07;46.85;102990.53;5093410;28;20040;-66
2023/02/09 00:10:10;;;;;;;21.40;15.18;;;5.80;99.90;;;5.97;47.15;102988.28;5093120;28;20040;-66
2023/02/09 00:15:24;;;;;;;25.88;15.25;;;5.60;99.90;;;5.53;48.12;102976.41;5075271;28;20044;-66
2023/02/09 00:17:52;;;;;;;25.65;15.75;;;5.40;99.90;;;5.34;48.68;102969.34;5093276;28;20043;-66
2023/02/09 00:20:22;;;;;;;26.40;17.05;;;5.20;99.90;;;5.36;48.41;102976.44;5093002;28;20036;-67
2023/02/09 00:22:50;;;;;;;25.10;16.57;;;5.20;99.90;;;5.24;48.78;102972.31;5093042;28;20040;-66
2023/02/09 00:25:19;;;;;;;23.42;16.15;;;5.10;99.90;;;5.16;48.81;102971.03;5092865;28;20501;-66
2023/02/09 00:27:47;;;;;;;20.40;15.70;;;5.10;99.90;;;5.17;49.26;102971.09;5093258;28;20058;-67
2023/02/09 00:30:15;;;;;;;23.25;15.27;;;5.10;99.90;;;5.21;48.98;102972.13;5075308;28;20054;-66
2023/02/09 00:32:45;;;;;;;25.10;16.45;;;5.10;99.90;;;5.20;49.36;102975.59;5093203;28;20032;-66
2023/02/09 00:35:14;;;;;;;29.27;16.77;;;5.10;99.90;;;5.17;49.00;102971.09;5075030;28;20143;-65
2023/02/09 00:37:44;;;;;;;21.30;14.57;;;5.10;99.90;;;5.18;49.08;102977.25;5092809;28;20075;-66
2023/02/09 00:40:13;;;;;;;27.90;16.75;;;5.10;99.90;;;5.24;49.34;102972.31;5092930;28;20097;-66
2023/02/09 00:42:41;;;;;;;26.00;14.90;;;5.10;99.90;;;5.24;48.66;102972.31;5093128;28;20080;-66
2023/02/09 00:45:10;;;;;;;23.48;15.15;;;5.10;99.90;;;5.25;49.04;102975.00;5075160;28;20508;-65
2023/02/09 00:47:38;;;;;;;21.63;16.08;;;5.10;99.90;;;5.11;49.34;102972.53;5074797;28;20572;-66
2023/02/09 00:50:07;;;;;;;26.20;15.80;;;5.10;99.90;;;5.08;49.88;102959.22;5092763;28;20417;-66
2023/02/09 00:52:35;;;;;;;26.55;15.35;;;5.00;99.90;;;5.03;49.54;102964.22;5093293;28;20032;-64
2023/02/09 00:55:06;;;;;;;25.48;16.45;;;5.00;99.90;;;4.96;50.04;102961.22;5094510;28;20350;-66
2023/02/09 00:57:34;;;;;;;;;;;4.90;99.90;;;4.80;50.15;102956.03;5097139;28;20095;-66
2023/02/09 01:00:03;;;;;;;22.73;15.75;;;4.80;99.90;;;4.73;50.82;102960.03;5096850;28;19919;-66
2023/02/09 01:02:32;;;;;;;26.20;16.20;;;4.70;99.90;;;4.75;50.67;102967.97;5096296;28;20528;-66
2023/02/09 01:05:00;;;;;;;25.80;16.60;;;4.70;99.90;;;4.65;51.25;102953.47;5077833;28;20089;-66
2023/02/09 01:07:29;;;;;;;25.23;16.00;;;4.60;99.90;;;4.57;51.37;102966.19;5077976;28;20039;-66
2023/02/09 01:09:58;;;;;;;26.38;16.90;;;4.50;99.90;;;4.64;51.49;102964.81;5096036;28;20512;-66
2023/02/09 01:12:29;;;;;;;21.42;15.63;;;4.60;99.90;;;4.71;51.33;102966.91;5096094;28;20499;-66
2023/02/09 01:14:57;;;;;;;22.20;16.23;;;4.60;99.90;;;4.70;51.09;102957.25;5077683;28;20051;-65
2023/02/09 01:17:26;;;;;;;29.07;16.07;;;4.70;99.90;;;4.73;51.70;102951.25;5077850;28;20505;-66
2023/02/09 01:19:55;;;;;;;22.43;15.83;;;4.70;99.90;;;4.78;51.39;102947.19;5095472;28;20046;-66
2023/02/09 01:22:24;;;;;;;24.47;16.63;;;4.60;99.90;;;4.74;51.33;102948.75;5095808;28;20040;-66
2023/02/09 01:24:52;;;;;;;22.07;16.50;;;4.60;99.90;;;4.71;51.99;102945.94;5077430;28;20417;-66
2023/02/09 01:27:20;;;;;;;22.40;16.17;;;4.60;99.90;;;4.48;52.04;102929.03;5077166;28;20439;-66
2023/02/09 01:29:50;;;;;;;24.03;17.40;;;4.50;99.90;;;4.42;52.84;102954.88;5095510;28;20341;-66
2023/02/09 01:32:19;;;;;;;24.58;17.38;;;4.40;99.90;;;4.38;53.03;102952.00;5095812;28;20134;-65
2023/02/09 01:34:51;;;;;;;29.00;17.50;;;4.30;99.90;;;4.46;52.95;102959.47;5095799;28;20087;-66
2023/02/09 01:37:19;;;;;;;25.90;15.80;;;4.30;99.90;;;4.55;52.95;102957.34;5095151;28;20062;-66
2023/02/09 01:39:48;;;;;;;25.97;17.47;;;4.40;99.90;;;4.63;53.02;102951.63;5095686;28;20051;-66
2023/02/09 01:42:19;;;;;;;25.08;15.95;;;4.50;99.90;;;4.67;52.70;102940.44;5095505;28;20420;-66
2023/02/09 01:45:23;;;;;;;23.52;17.52;;;4.60;99.90;;;4.71;53.20;102935.47;5095821;28;20155;-65
2023/02/09 01:47:57;;;;;;;23.67;17.23;;;4.60;99.90;;;4.73;53.15;102931.19;5095316;28;20040;-66
2023/02/09 01:50:27;;;;;;;30.13;16.83;;;4.60;99.90;;;4.78;53.49;102932.31;5095086;28;20370;-65
2023/02/09 01:52:57;;;;;;;23.43;17.70;;;4.60;99.90;;;4.90;52.97;102939.91;5077294;28;20050;-66
2023/02/09 01:55:30;;;;;;;25.02;16.77;;;4.70;99.90;;;5.03;53.01;102934.50;5076860;28;20374;-66
2023/02/09 01:58:07;;;;;;;23.37;17.10;;;4.80;99.90;;;5.15;52.83;102938.63;5095115;28;20039;-66
2023/02/09 02:00:37;;;;;;;22.27;17.13;;;5.00;99.90;;;5.29;52.26;102944.56;5094865;28;20086;-69
2023/02/09 02:03:09;;;;;;;23.73;17.20;;;5.10;99.90;;;5.44;52.04;102945.34;5077569;28;20134;-68
2023/02/09 02:05:43;;;;;;;26.70;17.17;;;5.20;99.90;;;5.55;51.72;102938.91;5077586;28;20109;-68
2023/02/09 02:08:19;;;;;;;27.07;16.70;;;5.40;99.90;;;5.55;51.78;102932.75;5077400;28;20059;-68
2023/02/09 02:10:48;;;;;;;26.17;16.33;;;5.40;99.90;;;5.56;51.63;102938.06;5077113;28;20051;-68
2023/02/09 02:13:18;;;;;;;25.40;16.97;;;5.40;99.90;;;5.65;51.96;102935.91;5077390;28;20055;-69
2023/02/09 02:15:59;;;;;;;23.77;17.37;;;5.50;99.90;;;5.65;52.10;102941.16;5095166;28;20036;-69
2023/02/09 02:18:44;;;;;;;26.42;17.52;;;5.50;99.90;;;5.66;52.35;102929.81;5077296;28;20047;-69
2023/02/09 02:22:11;;;;;;;26.45;17.02;;;5.40;99.90;;;5.68;52.46;102920.28;5095386;28;20068;-68
2023/02/09 02:25:27;;;;;;;27.23;18.20;;;5.50;99.90;;;5.62;53.06;102920.00;5072436;28;20075;-68
2023/02/09 02:28:28;;;;;;;30.55;17.98;;;5.40;99.90;;;5.49;52.94;102900.16;5076680;28;20432;-69
2023/02/09 02:31:43;;;;;;;24.48;17.50;;;5.40;99.90;;;5.34;53.20;102895.88;5077078;28;20048;-68
2023/02/09 02:34:20;;;;;;;27.67;17.92;;;5.30;99.90;;;5.16;53.75;102887.09;5094876;28;20118;-68
2023/02/09 02:37:01;;;;;;;29.83;17.35;;;5.10;99.90;;;4.97;53.98;102887.00;5076887;28;20044;-68
2023/02/09 02:39:38;;;;;;;26.30;17.38;;;4.80;99.90;;;4.80;54.83;102886.13;5094667;28;20097;-69
2023/02/09 02:45:06;;;;;;;24.07;16.93;;;4.60;99.90;;;4.83;55.49;102888.00;5076744;28;20082;-68
2023/02/09 02:47:39;;;;;;;22.40;16.03;;;4.70;99.90;;;4.77;55.07;102880.72;5076679;28;20383;-69
2023/02/09 02:50:14;;;;;;;25.30;18.67;;;4.60;99.90;;;4.70;55.11;102886.50;5094759;28;20489;-68
2023/02/09 02:52:47;;;;;;;27.53;17.93;;;4.60;99.90;;;4.62;55.23;102850.22;5094777;28;20437;-68
2023/02/09 02:55:20;;;;;;;24.83;17.23;;;4.60;99.90;;;4.53;56.07;102868.97;5094729;28;20052;-69
2023/02/09 02:57:53;;;;;;;25.73;17.20;;;4.50;99.90;;;4.62;56.42;102871.19;5094405;28;20040;-69
2023/02/09 03:00:26;;;;;;;23.70;17.20;;;4.50;99.90;;;4.61;56.25;102872.91;5094390;28;20108;-68
2023/02/09 03:03:00;;;;;;;26.90;17.40;;;4.60;99.90;;;4.71;55.97;102874.25;5076653;28;20048;-69
2023/02/09 03:05:29;;;;;;;28.00;17.57;;;4.60;99.90;;;4.80;56.04;102869.50;5094223;28;20068;-69
2023/02/09 03:07:57;;;;;;;24.37;17.33;;;4.70;99.90;;;4.78;55.83;102869.41;5094497;28;20067;-69
2023/02/09 03:10:31;;;;;;;26.02;17.30;;;4.70;99.90;;;4.75;56.05;102864.03;5094273;28;20044;-68
2023/02/09 03:13:18;;;;;;;24.40;17.40;;;4.70;99.90;;;4.64;56.96;102852.09;5094425;28;20124;-69
2023/02/09 03:16:16;;;;;;;21.90;16.77;;;4.60;99.90;;;4.71;57.03;102861.16;5094317;28;20051;-69
2023/02/09 03:19:04;;;;;;;24.53;16.57;;;4.60;99.90;;;4.39;57.65;102814.97;5091354;28;20056;-69
2023/02/09 03:21:46;;;;;;;26.57;16.53;;;4.50;99.90;;;4.64;57.65;102856.44;5093972;28;20040;-69
2023/02/09 03:24:29;;;;;;;24.67;17.17;;;4.50;99.90;;;4.64;58.29;102846.88;5094205;28;20453;-69
2023/02/09 03:27:04;;;;;;;27.83;17.97;;;4.50;99.90;;;4.57;58.70;102829.00;5093707;28;20452;-69
2023/02/09 03:29:35;;;;;;;25.27;18.00;;;4.50;99.90;;;4.56;59.04;102846.47;5093730;28;20047;-69
2023/02/09 03:32:03;;;;;;;;;;;4.40;99.90;;;4.51;59.12;102837.47;5094233;28;20405;-69
2023/02/09 03:34:33;;;;;;;25.00;18.07;;;4.40;99.90;;;4.51;59.40;102842.69;5093722;28;20289;-68
2023/02/09 03:37:02;;;;;;;24.63;17.70;;;4.40;99.90;;;4.50;59.92;102843.53;5093959;28;20115;-69
2023/02/09 03:39:30;;;;;;;27.23;18.07;;;4.40;99.90;;;4.46;60.05;102846.81;5093859;28;20044;-68
2023/02/09 03:41:59;;;;;;;26.27;18.23;;;4.30;99.90;;;4.49;60.14;102833.84;5093554;28;20044;-68
2023/02/09 03:44:27;;;;;;;27.77;18.40;;;4.30;99.90;;;4.52;60.09;102833.13;5093529;28;20390;-69
2023/02/09 03:47:00;;;;;;;27.23;18.43;;;4.40;99.90;;;4.38;60.17;102845.50;5075600;28;20044;-69
2023/02/09 03:49:32;;;;;;;26.53;18.50;;;4.30;99.90;;;4.34;60.74;102824.31;5093923;28;20040;-68
2023/02/09 03:52:03;;;;;;;27.13;20.07;;;4.30;99.90;;;4.38;60.28;102835.03;5094046;28;20128;-68
2023/02/09 03:54:33;;;;;;;24.77;18.33;;;4.30;99.90;;;4.42;60.31;102831.75;5093495;28;20040;-69
2023/02/09 03:57:01;;;;;;;27.23;18.88;;;4.30;99.90;;;4.43;60.10;102828.28;5093675;28;20130;-69
2023/02/09 03:59:34;;;;;;;27.67;19.10;;;4.30;99.90;;;4.33;60.38;102825.13;5093280;28;20101;-69
2023/02/09 04:02:05;;;;;;;26.40;18.40;;;4.20;99.90;;;4.39;60.66;102836.81;5075509;28;20138;-69
2023/02/09 04:04:33;;;;;;;26.93;18.70;;;4.30;99.90;;;4.39;60.57;102836.81;5092305;28;20053;-68
2023/02/09 04:07:04;;;;;;;28.83;17.90;;;4.30;99.90;;;4.47;60.52;102832.00;5093415;28;20048;-68
2023/02/09 04:09:33;;;;;;;;;;;4.30;99.90;;;4.44;60.67;102824.88;5093828;28;20460;-68
2023/02/09 04:12:01;;;;;;;31.67;19.67;;;4.30;99.90;;;4.43;61.08;102838.78;5075314;28;20341;-69
2023/02/09 04:14:29;;;;;;;26.80;18.60;;;4.30;99.90;;;4.35;61.14;102833.97;5093069;28;20040;-69
2023/02/09 04:16:58;;;;;;;30.20;19.53;;;4.20;99.90;;;4.32;61.39;102828.56;5093122;28;20040;-68
2023/02/09 04:19:26;;;;;;;29.10;20.03;;;4.20;99.90;;;4.34;61.63;102827.84;5093707;28;20079;-68
2023/02/09 04:21:54;;;;;;;29.63;19.50;;;4.20;99.90;;;4.23;61.69;102825.47;5093039;28;20040;-68
2023/02/09 04:24:35;;;;;;;34.63;20.83;;;4.10;99.90;;;4.16;62.13;102818.13;5093161;28;20405;-68
2023/02/09 04:27:04;;;;;;;29.73;19.45;;;4.10;99.90;;;4.08;62.23;102817.72;5093384;28;20048;-68
2023/02/09 04:29:32;;;;;;;29.83;19.30;;;4.00;99.90;;;4.01;62.51;102815.56;5093696;28;20097;-69
2023/02/09 04:32:01;;;;;;;29.60;19.37;;;4.00;99.90;;;4.02;62.38;102821.72;5097186;28;20067;-68
2023/02/09 04:34:29;;;;;;;31.37;20.03;;;3.90;99.90;;;3.99;62.81;102819.84;5097125;28;20040;-68
2023/02/09 04:36:58;;;;;;;28.40;19.67;;;3.90;99.90;;;3.92;63.06;102830.81;5097108;28;20040;-69
2023/02/09 04:39:26;;;;;;;26.93;18.77;;;3.80;99.90;;;4.02;62.92;102840.97;5097064;28;20050;-68
2023/02/09 04:41:56;;;;;;;28.50;19.03;;;3.90;99.90;;;4.13;62.70;102836.28;5079076;28;20127;-68
2023/02/09 04:44:25;;;;;;;25.58;18.95;;;4.00;99.90;;;4.20;62.12;102841.03;5096982;28;20408;-68
2023/02/09 04:46:53;;;;;;;27.17;18.90;;;4.10;99.90;;;4.29;62.16;102844.13;5096931;28;20091;-68
2023/02/09 04:49:21;;;;;;;28.10;18.40;;;4.10;99.90;;;4.38;61.70;102852.47;5096825;28;20066;-69
2023/02/09 04:51:50;;;;;;;24.00;17.30;;;4.20;99.90;;;4.35;61.23;102829.66;5078745;28;20048;-68
2023/02/09 04:54:18;;;;;;;28.73;19.23;;;4.30;99.90;;;4.57;60.97;102848.25;5096790;28;20044;-68
2023/02/09 04:59:33;;;;;;;22.37;17.40;;;4.40;99.90;;;4.62;60.65;102856.38;5078788;28;20442;-69
2023/02/09 04:59:38;;;;;;;23.00;17.47;;;4.50;99.90;;;4.64;59.63;102851.19;5097169;28;20040;-69
2023/02/09 05:02:06;;;;;;;25.50;17.40;;;4.50;99.90;;;4.69;59.44;102845.38;5096619;28;20044;-69
2023/02/09 05:04:34;;;;;;;24.33;16.40;;;4.50;99.90;;;4.72;59.04;102848.16;5096573;28;20068;-68
2023/02/09 05:07:03;;;;;;;21.23;16.47;;;4.50;99.90;;;4.65;58.95;102851.25;5096479;28;20422;-68
2023/02/09 05:09:31;;;;;;;25.17;16.57;;;4.50;99.90;;;4.76;59.29;102855.34;5096446;28;20039;-68
2023/02/09 05:12:00;;;;;;;24.80;15.93;;;4.50;99.90;;;4.81;59.00;102853.84;5096584;28;20036;-68
2023/02/09 05:14:28;;;;;;;27.07;17.30;;;4.60;99.90;;;4.94;59.05;102872.00;5096670;28;20039;-68
2023/02/09 05:16:58;;;;;;;27.93;17.17;;;4.70;99.90;;;4.99;59.23;102877.47;5096308;28;20067;-68
2023/02/09 05:19:26;;;;;;;23.83;16.42;;;4.80;99.90;;;4.99;59.29;102891.50;5096282;28;20044;-68
2023/02/09 05:21:55;;;;;;;25.98;17.38;;;4.80;99.90;;;4.40;58.95;102772.22;5096252;28;20039;-69
2023/02/09 05:24:23;;;;;;;23.40;17.13;;;4.90;99.90;;;4.96;59.13;102866.81;5096155;28;20170;-69
2023/02/09 05:26:52;;;;;;;24.37;16.77;;;4.90;99.90;;;4.96;58.74;102866.81;5077933;28;20044;-68
2023/02/09 05:29:20;;;;;;;24.87;16.37;;;4.80;99.90;;;4.98;58.93;102873.94;5096380;28;20063;-69
2023/02/09 05:31:49;;;;;;;23.63;16.93;;;4.80;99.90;;;4.97;58.56;102880.03;5095938;28;20050;-68
2023/02/09 05:34:19;;;;;;;22.43;15.63;;;4.80;99.90;;;5.01;58.45;102889.84;5096301;28;20040;-68
2023/02/09 05:36:47;;;;;;;23.48;15.00;;;4.80;99.90;;;5.00;58.35;102890.66;5096204;28;20066;-68
2023/02/09 05:39:16;;;;;;;26.57;15.20;;;4.80;99.90;;;5.01;58.20;102886.31;5095792;28;20406;-69
2023/02/09 05:44:30;;;;;;;22.73;14.90;;;4.70;99.90;;;4.98;57.83;102880.91;5077995;28;20050;-68
2023/02/09 05:46:58;;;;;;;21.70;14.97;;;4.70;99.90;;;4.98;58.11;102878.28;5077837;28;20444;-68
2023/02/09 05:49:28;;;;;;;20.87;14.67;;;4.70;99.90;;;4.95;58.13;102881.69;5095974;28;20051;-68
2023/02/09 05:51:57;;;;;;;22.70;15.85;;;4.70;99.90;;;5.00;57.92;102887.13;5095535;28;20122;-68
2023/02/09 05:54:25;;;;;;;23.10;14.77;;;4.70;99.90;;;4.86;58.55;102867.22;5095819;28;20089;-68
2023/02/09 05:56:53;;;;;;;21.23;15.70;;;4.70;99.90;;;4.86;58.94;102878.56;5095852;28;20036;-68
2023/02/09 05:59:22;;;;;;;21.40;15.33;;;4.60;99.90;;;4.79;59.10;102884.34;5095793;28;20078;-68
2023/02/09 06:01:51;;;;;;;20.90;16.17;;;4.60;99.90;;;4.74;59.87;102890.16;5095690;28;20057;-68
2023/02/09 06:04:19;;;;;;;21.47;15.77;;;4.50;99.90;;;4.69;59.76;102904.75;5095415;28;20047;-69
2023/02/09 06:06:49;;;;;;;25.60;15.27;;;4.50;99.90;;;4.61;59.86;102896.47;5095905;28;20047;-68
2023/02/09 06:09:18;;;;;;;22.52;15.23;;;4.40;99.90;;;4.61;60.24;102896.47;5095338;28;20048;-68
2023/02/09 06:11:47;;;;;;;21.50;15.80;;;4.40;99.90;;;4.55;60.55;102898.78;5095158;28;20063;-68
2023/02/09 06:14:16;;;;;;;21.87;15.93;;;4.30;99.90;;;4.53;60.46;102892.56;5095143;28;20105;-69
2023/02/09 06:16:45;;;;;;;23.00;15.33;;;4.30;99.90;;;4.24;60.30;102851.75;5095713;28;20117;-69
2023/02/09 06:19:15;;;;;;;25.23;16.27;;;4.30;99.90;;;4.50;60.52;102931.72;5095631;28;20097;-68
2023/02/09 06:21:44;;;;;;;23.77;16.48;;;4.30;99.90;;;4.54;60.82;102899.63;5095121;28;20054;-68
2023/02/09 06:24:15;;;;;;;21.07;16.50;;;4.30;99.90;;;4.51;60.38;102897.72;5095229;28;20450;-68
2023/02/09 06:26:43;;;;;;;22.50;15.83;;;4.40;99.90;;;4.62;60.90;102907.88;5094975;28;20070;-68
2023/02/09 06:29:12;;;;;;;22.63;14.80;;;4.40;99.90;;;4.62;60.58;102910.50;5095228;28;20047;-69
2023/02/09 06:31:40;;;;;;;20.80;15.37;;;4.40;99.90;;;4.62;60.43;102906.16;5094739;28;20050;-69
2023/02/09 06:34:09;;;;;;;27.00;15.47;;;4.40;99.90;;;4.62;60.42;102906.16;5095033;28;20180;-69
2023/02/09 06:36:38;;;;;;;24.17;15.93;;;4.40;99.90;;;4.58;60.69;102905.09;5094833;28;20044;-69
2023/02/09 06:39:08;;;;;;;24.00;15.93;;;4.40;99.90;;;4.59;60.27;102912.13;5094652;28;20040;-68
2023/02/09 06:41:38;;;;;;;26.15;16.63;;;4.40;99.90;;;4.61;60.26;102919.19;5076868;28;20086;-68
2023/02/09 06:44:07;;;;;;;25.48;15.88;;;4.40;99.90;;;4.52;60.03;102906.50;5094959;28;20044;-68
2023/02/09 06:46:35;;;;;;;21.93;16.43;;;4.40;99.90;;;3.91;60.19;102804.56;5076715;28;20576;-69
2023/02/09 06:49:04;;;;;;;27.10;16.67;;;4.30;99.90;;;4.06;60.50;102892.69;5076550;28;20101;-68
2023/02/09 06:51:32;;;;;;;23.73;17.07;;;4.10;99.90;;;3.31;61.65;102783.81;5094093;28;20143;-69
2023/02/09 06:54:01;;;;;;;24.23;15.77;;;3.90;99.90;;;3.94;61.67;102912.94;5094062;28;20048;-68
2023/02/09 06:56:29;;;;;;;23.03;16.63;;;3.80;99.90;;;3.93;62.12;102891.94;5094230;28;20036;-69
2023/02/09 06:58:59;;;;;;;21.97;14.67;;;3.80;99.90;;;3.99;61.98;102935.03;5094300;28;20043;-70
2023/02/09 07:01:27;;;;;;;24.73;16.30;;;3.90;99.90;;;4.12;61.77;102908.69;5094420;28;20052;-68
2023/02/09 07:03:56;;;;;;;22.93;15.63;;;4.00;99.90;;;4.14;61.64;102904.44;5094763;28;20398;-68
2023/02/09 07:06:25;;;;;;;24.17;15.50;;;4.00;99.90;;;4.08;61.26;102880.56;5094126;28;20094;-68
2023/02/09 07:08:53;;;;;;;20.87;15.27;;;4.00;99.90;;;4.20;61.43;102899.53;5094362;28;20047;-68
2023/02/09 07:11:22;;;;;;;24.50;16.40;;;4.00;99.90;;;4.23;61.61;102917.13;5075944;28;20046;-68
2023/02/09 07:13:50;;;;;;;22.43;15.53;;;4.00;99.90;;;4.24;61.49;102909.34;5093938;28;20075;-68
2023/02/09 07:16:20;;;;;;;20.93;15.03;;;4.10;99.90;;;4.28;61.29;102905.19;5094285;28;20070;-69
2023/02/09 07:18:49;;;;;;;21.85;15.93;;;4.10;99.90;;;4.34;61.21;102900.25;5093956;28;20046;-68
2023/02/09 07:21:20;;;;;;;20.67;15.27;;;4.10;99.90;;;4.27;60.93;102883.34;5075979;28;20043;-68
2023/02/09 07:23:51;;;;;;;20.50;15.57;;;4.20;99.90;;;4.43;60.92;102916.50;5093956;28;20123;-69
2023/02/09 07:26:19;;;;;;;23.70;15.20;;;4.30;99.90;;;3.64;61.04;102765.59;5093696;28;20505;-68
2023/02/09 07:28:48;;;;;;;23.53;16.60;;;4.30;99.90;;;4.51;61.21;102917.78;5093805;28;20036;-69
2023/02/09 07:31:17;;;;;;;26.10;15.47;;;4.30;99.90;;;4.50;60.85;102916.91;5093603;28;20556;-68
2023/02/09 07:33:47;;;;;;;22.30;15.63;;;4.30;99.90;;;4.51;61.14;102929.16;5094169;28;20074;-66
2023/02/09 07:36:18;;;;;;;24.00;15.32;;;4.30;99.90;;;4.52;61.18;102916.97;5093638;28;20067;-67
2023/02/09 07:38:47;;;;;;;26.37;16.57;;;4.30;99.90;;;4.47;61.16;102911.47;5093949;28;20040;-67
2023/02/09 07:41:19;;;;;;;26.57;16.47;;;4.30;99.90;;;4.57;61.67;102928.59;5093551;28;20367;-69
2023/02/09 07:43:48;;;;;;;29.40;17.20;;;4.30;99.90;;;4.50;61.55;102923.84;5093863;28;20039;-72
2023/02/09 07:46:20;;;;;;;27.43;16.77;;;4.40;99.90;;;4.59;61.76;102926.94;5093477;28;20043;-71
2023/02/09 07:48:51;;;;;;;29.33;16.53;;;4.40;99.90;;;4.65;61.81;102922.03;5093855;28;20089;-67
2023/02/09 07:51:24;;;;;;;33.03;17.85;;;4.40;99.90;;;4.70;61.64;102923.19;5093404;28;20398;-64
2023/02/09 07:53:53;;;;;;;26.50;16.83;;;4.50;99.90;;;4.70;61.67;102917.03;5093459;28;20371;-69
2023/02/09 07:56:22;;;;;;;28.77;16.90;;;4.50;99.90;;;4.41;61.74;102865.75;5075550;28;20050;-68
2023/02/09 07:58:51;;;;;;;26.83;17.40;;;4.50;99.90;;;4.69;62.07;102920.47;5075290;28;20044;-67
2023/02/09 08:01:20;;;;;;;26.37;16.73;;;4.60;99.90;;;4.69;62.25;102920.47;5093302;28;20050;-70
2023/02/09 08:03:50;;;;;;;26.37;16.63;;;4.60;99.90;;;4.79;62.18;102934.13;5075450;28;20581;-70
2023/02/09 08:06:24;;;;;;;28.58;17.95;;;4.60;99.90;;;4.67;62.07;102915.16;5093390;28;20044;-70
2023/02/09 08:09:09;;;;;;;26.93;18.23;;;4.70;99.90;;;4.89;61.89;102944.28;5093648;28;20040;-71
2023/02/09 08:11:42;;;;;;;31.50;18.37;;;4.70;99.90;;;4.92;62.14;102927.78;5093770;28;20082;-77
2023/02/09 08:14:18;;;;;;;28.65;17.75;;;4.80;99.90;;;4.94;62.40;102929.69;5075410;28;20282;-73
2023/02/09 08:16:48;;;;;;;28.23;16.55;;;4.80;99.90;;;5.07;61.79;102950.47;5093707;28;20036;-70
2023/02/09 08:19:23;;;;;;;26.67;17.55;;;4.90;99.90;;;5.20;61.66;102941.50;5093393;28;20040;-71
2023/02/09 08:21:52;;;;;;;28.45;17.92;;;5.00;99.90;;;5.24;61.39;102941.75;5075658;28;20079;-71
2023/02/09 08:24:21;;;;;;;25.23;17.73;;;5.10;99.90;;;5.35;61.28;102939.63;5093478;28;20044;-71
2023/02/09 08:26:49;;;;;;;29.48;18.73;;;5.10;99.90;;;5.38;61.05;102938.06;5093154;28;20458;-71
2023/02/09 08:29:18;;;;;;;30.00;16.98;;;5.30;99.90;;;5.46;61.05;102934.09;5094958;28;20036;-71
2023/02/09 08:31:46;;;;;;;29.52;18.48;;;5.30;99.90;;;5.31;61.02;102896.63;5093463;28;20093;-71
2023/02/09 08:34:15;;;;;;;29.33;17.25;;;5.40;99.90;;;5.54;61.08;102931.84;5093101;28;20106;-70
2023/02/09 08:36:45;;;;;;;22.92;16.73;;;5.40;99.90;;;5.55;60.94;102938.91;5075529;28;20044;-74
2023/02/09 08:39:13;;;;;;;26.92;17.30;;;5.40;99.90;;;5.61;61.02;102925.19;5093459;28;20044;-71
2023/02/09 08:41:42;;;;;;;25.58;16.50;;;5.40;99.90;;;5.72;61.13;102926.59;5092839;28;20451;-70
2023/02/09 08:44:13;;;;;;;26.17;16.48;;;5.50;99.90;;;5.78;61.10;102935.66;5075000;28;20067;-72
2023/02/09 08:46:41;;;;;;;29.08;17.27;;;5.60;99.90;;;5.98;60.97;102947.16;5092703;28;20075;-71
2023/02/09 08:49:10;;;;;;;26.00;17.83;;;5.70;99.90;;;5.97;60.84;102933.13;5092833;28;20099;-70
2023/02/09 08:51:39;;;;;;;26.17;17.35;;;5.80;99.90;;;6.09;60.41;102928.47;5093253;28;20118;-70
2023/02/09 08:54:09;;;;;;;25.10;17.05;;;5.90;99.90;;;6.18;60.65;102942.00;5092849;28;20408;-70
2023/02/09 08:56:37;;;;;;;25.75;17.35;;;6.00;99.90;;;6.37;60.41;102944.66;5092728;28;20039;-70
2023/02/09 08:59:06;;;;;;;23.45;16.48;;;6.20;99.90;;;6.44;60.56;102942.31;5093310;28;20044;-70
2023/02/09 09:01:34;;;;;;;26.00;16.63;;;6.20;99.90;;;6.55;60.39;102949.84;5092905;28;20395;-70
2023/02/09 09:04:03;;;;;;;23.83;16.35;;;6.30;99.90;;;6.70;60.27;102947.91;5092573;28;20051;-71
2023/02/09 09:06:31;;;;;;;23.38;16.92;;;6.50;99.90;;;6.83;60.38;102946.72;5074592;28;20432;-71
2023/02/09 09:09:00;;;;;;;22.67;16.15;;;6.60;99.90;;;6.88;60.29;102932.94;5092647;28;20489;-71
2023/02/09 09:11:30;;;;;;;24.27;16.13;;;6.70;99.90;;;7.00;60.48;102929.94;5092893;28;20055;-70
2023/02/09 09:13:59;;;;;;;23.08;16.33;;;6.80;99.90;;;7.06;59.93;102940.72;5092806;28;20066;-70
2023/02/09 09:16:27;;;;;;;20.73;16.08;;;6.90;99.90;;;7.14;59.75;102940.19;5095272;28;20075;-70
2023/02/09 09:18:56;;;;;;;26.10;16.52;;;6.90;99.90;;;7.20;59.46;102951.00;5096841;28;20055;-70
2023/02/09 09:21:25;;;;;;;26.63;16.75;;;7.00;99.90;;;7.27;59.28;102957.44;5096646;28;20071;-70
2023/02/09 09:23:53;;;;;;;25.23;16.85;;;7.00;99.90;;;7.19;58.69;102948.31;5096160;28;20044;-70
2023/02/09 09:26:21;;;;;;;25.77;17.85;;;7.00;99.90;;;7.24;59.31;102952.00;5096004;28;20044;-71
2023/02/09 09:28:52;;;;;;;21.52;16.75;;;7.00;99.90;;;7.22;59.24;102948.41;5096476;28;20048;-68
2023/02/09 09:31:20;;;;;;;24.23;17.30;;;7.00;99.90;;;7.09;59.22;102948.75;5096689;28;20127;-70
2023/02/09 09:33:49;;;;;;;26.40;17.27;;;6.90;99.90;;;7.00;59.28;102946.63;5096151;28;20091;-70
2023/02/09 09:36:19;;;;;;;24.02;17.13;;;6.80;99.90;;;7.06;59.64;102964.41;5078016;28;20048;-70
2023/02/09 09:38:47;;;;;;;25.55;17.08;;;6.80;99.90;;;7.05;59.94;102955.59;5096636;28;20040;-70
2023/02/09 09:41:23;;;;;;;27.02;17.30;;;6.80;99.90;;;7.03;60.00;102952.00;5095908;28;20054;-71
2023/02/09 09:43:54;;;;;;;22.80;17.00;;;6.80;99.90;;;7.03;60.47;102957.28;5095808;28;20044;-68
2023/02/09 09:46:33;;;;;;;28.02;17.73;;;6.80;99.90;;;7.10;60.50;102968.97;5096232;28;20040;-70
2023/02/09 09:49:03;;;;;;;26.17;17.20;;;6.80;99.90;;;7.11;60.50;102966.41;5096295;28;20040;-71
2023/02/09 09:51:39;;;;;;;29.05;18.20;;;6.90;99.90;;;7.10;60.51;102963.72;5095950;28;20117;-71
2023/02/09 09:54:17;;;;;;;29.17;17.92;;;6.90;99.90;;;7.17;60.94;102960.50;5077665;28;20490;-69
2023/02/09 09:56:45;;;;;;;29.98;18.50;;;6.90;99.90;;;7.15;60.57;102964.78;5095630;28;20440;-69
2023/02/09 09:59:22;;;;;;;28.33;18.52;;;6.90;99.90;;;7.13;61.11;102974.34;5095474;28;20117;-67
2023/02/09 10:01:53;;;;;;;27.90;18.42;;;6.90;99.90;;;7.21;61.20;102967.69;5095427;28;20041;-68
2023/02/09 10:04:21;;;;;;;;;;;7.00;99.90;;;7.21;61.54;102968.59;5096086;28;20044;-70
2023/02/09 10:07:00;;;;;;;31.10;18.92;;;7.00;99.90;;;7.13;62.27;102963.81;5095401;28;19920;-70
2023/02/09 10:09:43;;;;;;;28.20;18.77;;;6.90;99.90;;;7.18;62.49;102978.09;5095683;28;20043;-70
2023/02/09 10:12:28;;;;;;;27.98;18.75;;;7.00;99.90;;;7.21;62.86;102978.22;5095364;28;20080;-70
2023/02/09 10:14:59;;;;;;;28.35;19.17;;;7.00;99.90;;;7.00;62.83;102930.84;5095624;28;20066;-72
2023/02/09 10:17:27;;;;;;;31.70;21.02;;;7.00;99.90;;;7.34;62.60;102984.94;5095349;28;20131;-69
2023/02/09 10:20:02;;;;;;;31.10;20.98;;;7.10;99.90;;;7.35;62.40;102977.09;5095420;28;20040;-70
2023/02/09 10:22:30;;;;;;;31.13;20.92;;;7.20;99.90;;;7.41;62.92;102993.16;5095140;28;20067;-70
2023/02/09 10:24:59;;;;;;;29.08;20.23;;;7.20;99.90;;;7.38;63.10;102987.72;5095035;28;20036;-70
2023/02/09 10:27:30;;;;;;;29.73;20.50;;;7.30;99.90;;;7.44;62.90;102990.63;5094690;28;20391;-70
2023/02/09 10:30:17;;;;;;;;;;;7.20;99.90;;;7.51;62.96;102994.44;5096003;28;20505;-70
2023/02/09 10:32:46;;;;;;;29.08;21.70;;;7.30;99.90;;;7.47;63.15;102987.22;5094856;28;19966;-70
2023/02/09 10:35:27;;;;;;;33.47;21.35;;;7.30;99.90;;;7.52;63.58;102985.69;5095018;28;20044;-70
2023/02/09 10:38:01;;;;;;;31.42;21.05;;;7.40;99.90;;;7.75;63.61;103005.97;5095075;28;20488;-70